sensor_id;sensor_type;location;lat;lon;timestamp;temperature;humidity
29731;DHT22;16639;51.488;0.152;2023-05-29T00:01:00;12.90;99.90
29731;DHT22;16639;51.488;0.152;2023-05-29T00:03:28;12.90;99.90
29731;DHT22;16639;51.488;0.152;2023-05-29T00:06:02;12.80;99.90
29731;DHT22;16639;51.488;0.152;2023-05-29T00:08:30;12.80;99.90
29731;DHT22;16639;51.488;0.152;2023-05-29T00:10:57;12.80;99.90
29731;DHT22;16639;51.488;0.152;2023-05-29T00:13:25;12.80;99.90
29731;DHT22;16639;51.488;0.152;2023-05-29T00:15:53;12.80;99.90
29731;DHT22;16639;51.488;0.152;2023-05-29T00:18:20;12.80;99.90
29731;DHT22;16639;51.488;0.152;2023-05-29T00:20:48;12.80;99.90
29731;DHT22;16639;51.488;0.152;2023-05-29T00:23:15;12.60;99.90
29731;DHT22;16639;51.488;0.152;2023-05-29T00:25:43;12.60;99.90
29731;DHT22;16639;51.488;0.152;2023-05-29T00:28:11;12.60;99.90
29731;DHT22;16639;51.488;0.152;2023-05-29T00:30:39;12.50;99.90
29731;DHT22;16639;51.488;0.152;2023-05-29T00:33:07;12.40;99.90
29731;DHT22;16639;51.488;0.152;2023-05-29T00:35:35;12.40;99.90
29731;DHT22;16639;51.488;0.152;2023-05-29T00:38:03;12.40;99.90
29731;DHT22;16639;51.488;0.152;2023-05-29T00:40:30;12.40;99.90
29731;DHT22;16639;51.488;0.152;2023-05-29T00:42:57;12.40;99.90
29731;DHT22;16639;51.488;0.152;2023-05-29T00:45:25;12.40;99.90
29731;DHT22;16639;51.488;0.152;2023-05-29T00:47:53;12.30;99.90
29731;DHT22;16639;51.488;0.152;2023-05-29T00:50:21;12.30;99.90
29731;DHT22;16639;51.488;0.152;2023-05-29T00:52:51;12.20;99.90
29731;DHT22;16639;51.488;0.152;2023-05-29T00:55:18;12.30;99.90
29731;DHT22;16639;51.488;0.152;2023-05-29T00:57:46;12.20;99.90
29731;DHT22;16639;51.488;0.152;2023-05-29T01:00:15;12.20;99.90
29731;DHT22;16639;51.488;0.152;2023-05-29T01:02:43;12.20;99.90
29731;DHT22;16639;51.488;0.152;2023-05-29T01:05:12;12.10;99.90
29731;DHT22;16639;51.488;0.152;2023-05-29T01:07:41;12.10;99.90
29731;DHT22;16639;51.488;0.152;2023-05-29T01:10:10;12.10;99.90
29731;DHT22;16639;51.488;0.152;2023-05-29T01:12:57;12.20;99.90
29731;DHT22;16639;51.488;0.152;2023-05-29T01:24:26;12.00;99.90
29731;DHT22;16639;51.488;0.152;2023-05-29T01:27:08;12.00;99.90
29731;DHT22;16639;51.488;0.152;2023-05-29T01:29:39;12.10;99.90
29731;DHT22;16639;51.488;0.152;2023-05-29T01:32:10;13.00;99.90
29731;DHT22;16639;51.488;0.152;2023-05-29T01:34:38;12.00;99.90
29731;DHT22;16639;51.488;0.152;2023-05-29T01:37:05;12.00;99.90
29731;DHT22;16639;51.488;0.152;2023-05-29T01:39:33;12.00;99.90
29731;DHT22;16639;51.488;0.152;2023-05-29T01:42:01;12.00;99.90
29731;DHT22;16639;51.488;0.152;2023-05-29T01:44:29;12.00;99.90
29731;DHT22;16639;51.488;0.152;2023-05-29T01:46:58;11.90;99.90
29731;DHT22;16639;51.488;0.152;2023-05-29T01:49:26;12.50;99.90
29731;DHT22;16639;51.488;0.152;2023-05-29T01:51:55;11.90;99.90
29731;DHT22;16639;51.488;0.152;2023-05-29T01:54:22;11.90;99.90
29731;DHT22;16639;51.488;0.152;2023-05-29T01:56:50;12.30;99.90
29731;DHT22;16639;51.488;0.152;2023-05-29T01:59:19;11.90;99.90
29731;DHT22;16639;51.488;0.152;2023-05-29T02:01:47;12.60;99.90
29731;DHT22;16639;51.488;0.152;2023-05-29T02:04:15;11.80;99.90
29731;DHT22;16639;51.488;0.152;2023-05-29T02:06:42;11.80;99.90
29731;DHT22;16639;51.488;0.152;2023-05-29T02:09:09;11.70;99.90
29731;DHT22;16639;51.488;0.152;2023-05-29T02:11:37;11.70;99.90
29731;DHT22;16639;51.488;0.152;2023-05-29T02:14:04;11.70;99.90
29731;DHT22;16639;51.488;0.152;2023-05-29T02:16:32;11.70;99.90
29731;DHT22;16639;51.488;0.152;2023-05-29T02:19:01;11.70;99.90
29731;DHT22;16639;51.488;0.152;2023-05-29T02:21:29;11.60;99.90
29731;DHT22;16639;51.488;0.152;2023-05-29T02:23:56;11.70;99.90
29731;DHT22;16639;51.488;0.152;2023-05-29T02:26:24;11.60;99.90
29731;DHT22;16639;51.488;0.152;2023-05-29T02:28:51;11.60;99.90
29731;DHT22;16639;51.488;0.152;2023-05-29T02:31:18;11.60;99.90
29731;DHT22;16639;51.488;0.152;2023-05-29T02:33:46;11.60;99.90
29731;DHT22;16639;51.488;0.152;2023-05-29T02:36:13;12.00;99.90
29731;DHT22;16639;51.488;0.152;2023-05-29T02:38:41;11.60;99.90
29731;DHT22;16639;51.488;0.152;2023-05-29T02:41:08;11.60;99.90
29731;DHT22;16639;51.488;0.152;2023-05-29T02:43:35;11.50;99.90
29731;DHT22;16639;51.488;0.152;2023-05-29T02:46:03;11.50;99.90
29731;DHT22;16639;51.488;0.152;2023-05-29T02:48:30;11.50;99.90
29731;DHT22;16639;51.488;0.152;2023-05-29T02:50:57;11.50;99.90
29731;DHT22;16639;51.488;0.152;2023-05-29T02:53:25;11.40;99.90
29731;DHT22;16639;51.488;0.152;2023-05-29T02:55:52;11.40;99.90
29731;DHT22;16639;51.488;0.152;2023-05-29T02:58:20;11.40;99.90
29731;DHT22;16639;51.488;0.152;2023-05-29T03:00:48;11.30;99.90
29731;DHT22;16639;51.488;0.152;2023-05-29T03:03:15;11.40;99.90
29731;DHT22;16639;51.488;0.152;2023-05-29T03:05:43;11.30;99.90
29731;DHT22;16639;51.488;0.152;2023-05-29T03:08:10;11.30;99.90
29731;DHT22;16639;51.488;0.152;2023-05-29T03:10:38;11.20;99.90
29731;DHT22;16639;51.488;0.152;2023-05-29T03:13:06;11.10;99.90
29731;DHT22;16639;51.488;0.152;2023-05-29T03:15:33;11.20;99.90
29731;DHT22;16639;51.488;0.152;2023-05-29T03:18:01;11.20;99.90
29731;DHT22;16639;51.488;0.152;2023-05-29T03:20:28;11.30;99.90
29731;DHT22;16639;51.488;0.152;2023-05-29T03:22:56;11.20;99.90
29731;DHT22;16639;51.488;0.152;2023-05-29T03:25:24;11.20;99.90
29731;DHT22;16639;51.488;0.152;2023-05-29T03:27:51;11.20;99.90
29731;DHT22;16639;51.488;0.152;2023-05-29T03:30:18;11.20;99.90
29731;DHT22;16639;51.488;0.152;2023-05-29T03:32:47;11.20;99.90
29731;DHT22;16639;51.488;0.152;2023-05-29T03:35:15;11.20;99.90
29731;DHT22;16639;51.488;0.152;2023-05-29T03:37:42;11.20;99.90
29731;DHT22;16639;51.488;0.152;2023-05-29T03:48:14;11.20;99.90
29731;DHT22;16639;51.488;0.152;2023-05-29T03:50:42;11.10;99.90
29731;DHT22;16639;51.488;0.152;2023-05-29T03:53:09;11.10;99.90
29731;DHT22;16639;51.488;0.152;2023-05-29T03:55:37;11.10;99.90
29731;DHT22;16639;51.488;0.152;2023-05-29T03:58:04;11.10;99.90
29731;DHT22;16639;51.488;0.152;2023-05-29T04:00:31;11.10;99.90
29731;DHT22;16639;51.488;0.152;2023-05-29T04:02:59;11.10;99.90
29731;DHT22;16639;51.488;0.152;2023-05-29T04:05:26;11.00;99.90
29731;DHT22;16639;51.488;0.152;2023-05-29T04:07:54;11.30;99.90
29731;DHT22;16639;51.488;0.152;2023-05-29T04:10:40;11.10;99.90
29731;DHT22;16639;51.488;0.152;2023-05-29T04:13:07;11.10;99.90
29731;DHT22;16639;51.488;0.152;2023-05-29T04:15:35;11.00;99.90
29731;DHT22;16639;51.488;0.152;2023-05-29T04:18:02;11.00;99.90
29731;DHT22;16639;51.488;0.152;2023-05-29T04:20:30;11.00;99.90
29731;DHT22;16639;51.488;0.152;2023-05-29T04:22:58;11.00;99.90
29731;DHT22;16639;51.488;0.152;2023-05-29T04:25:25;11.00;99.90
29731;DHT22;16639;51.488;0.152;2023-05-29T04:27:52;11.00;99.90
29731;DHT22;16639;51.488;0.152;2023-05-29T04:30:20;10.90;99.90
29731;DHT22;16639;51.488;0.152;2023-05-29T04:32:47;11.00;99.90
29731;DHT22;16639;51.488;0.152;2023-05-29T04:35:15;11.00;99.90
29731;DHT22;16639;51.488;0.152;2023-05-29T04:37:43;11.00;99.90
29731;DHT22;16639;51.488;0.152;2023-05-29T04:40:11;11.00;99.90
29731;DHT22;16639;51.488;0.152;2023-05-29T04:42:42;10.90;99.90
29731;DHT22;16639;51.488;0.152;2023-05-29T04:45:09;11.00;99.90
29731;DHT22;16639;51.488;0.152;2023-05-29T04:47:37;10.90;99.90
29731;DHT22;16639;51.488;0.152;2023-05-29T04:50:11;11.00;99.90
29731;DHT22;16639;51.488;0.152;2023-05-29T04:52:38;11.00;99.90
29731;DHT22;16639;51.488;0.152;2023-05-29T04:55:06;11.00;99.90
29731;DHT22;16639;51.488;0.152;2023-05-29T04:57:34;11.90;99.90
29731;DHT22;16639;51.488;0.152;2023-05-29T05:00:02;11.00;99.90
29731;DHT22;16639;51.488;0.152;2023-05-29T05:02:34;10.70;99.90
29731;DHT22;16639;51.488;0.152;2023-05-29T05:05:01;11.00;99.90
29731;DHT22;16639;51.488;0.152;2023-05-29T05:07:29;10.90;99.90
29731;DHT22;16639;51.488;0.152;2023-05-29T05:09:56;11.10;99.90
29731;DHT22;16639;51.488;0.152;2023-05-29T05:12:23;10.80;99.90
29731;DHT22;16639;51.488;0.152;2023-05-29T05:14:51;11.10;99.90
29731;DHT22;16639;51.488;0.152;2023-05-29T05:17:18;11.00;99.90
29731;DHT22;16639;51.488;0.152;2023-05-29T05:19:45;11.10;99.90
29731;DHT22;16639;51.488;0.152;2023-05-29T05:22:13;11.20;99.90
29731;DHT22;16639;51.488;0.152;2023-05-29T05:24:40;11.20;99.90
29731;DHT22;16639;51.488;0.152;2023-05-29T05:27:08;11.20;99.90
29731;DHT22;16639;51.488;0.152;2023-05-29T05:29:35;10.30;99.90
29731;DHT22;16639;51.488;0.152;2023-05-29T05:32:02;11.20;99.90
29731;DHT22;16639;51.488;0.152;2023-05-29T05:34:30;11.30;99.90
29731;DHT22;16639;51.488;0.152;2023-05-29T05:36:57;11.30;99.90
29731;DHT22;16639;51.488;0.152;2023-05-29T05:39:25;11.10;99.90
29731;DHT22;16639;51.488;0.152;2023-05-29T05:41:52;11.10;99.90
29731;DHT22;16639;51.488;0.152;2023-05-29T05:44:19;11.50;99.90
29731;DHT22;16639;51.488;0.152;2023-05-29T05:46:46;11.50;99.90
29731;DHT22;16639;51.488;0.152;2023-05-29T05:49:14;11.40;99.90
29731;DHT22;16639;51.488;0.152;2023-05-29T05:51:42;11.40;99.90
29731;DHT22;16639;51.488;0.152;2023-05-29T05:54:09;11.50;99.90
29731;DHT22;16639;51.488;0.152;2023-05-29T05:56:37;11.30;99.90
29731;DHT22;16639;51.488;0.152;2023-05-29T05:59:04;11.50;99.90
29731;DHT22;16639;51.488;0.152;2023-05-29T06:01:32;11.50;99.90
29731;DHT22;16639;51.488;0.152;2023-05-29T06:04:00;11.50;99.90
29731;DHT22;16639;51.488;0.152;2023-05-29T06:06:27;11.50;99.90
29731;DHT22;16639;51.488;0.152;2023-05-29T06:08:55;11.60;99.90
29731;DHT22;16639;51.488;0.152;2023-05-29T06:11:24;11.60;99.90
29731;DHT22;16639;51.488;0.152;2023-05-29T06:13:53;11.70;99.90
29731;DHT22;16639;51.488;0.152;2023-05-29T06:16:21;11.70;99.90
29731;DHT22;16639;51.488;0.152;2023-05-29T06:18:48;11.70;99.90
29731;DHT22;16639;51.488;0.152;2023-05-29T06:21:16;11.70;99.90
29731;DHT22;16639;51.488;0.152;2023-05-29T06:23:43;12.00;99.90
29731;DHT22;16639;51.488;0.152;2023-05-29T06:26:11;12.20;99.90
29731;DHT22;16639;51.488;0.152;2023-05-29T06:28:39;11.90;99.90
29731;DHT22;16639;51.488;0.152;2023-05-29T06:31:06;11.90;99.90
29731;DHT22;16639;51.488;0.152;2023-05-29T06:33:35;11.90;99.90
29731;DHT22;16639;51.488;0.152;2023-05-29T06:36:02;11.70;99.90
29731;DHT22;16639;51.488;0.152;2023-05-29T06:38:30;12.00;99.90
29731;DHT22;16639;51.488;0.152;2023-05-29T06:40:57;12.00;99.90
29731;DHT22;16639;51.488;0.152;2023-05-29T06:43:25;12.00;99.90
29731;DHT22;16639;51.488;0.152;2023-05-29T06:45:52;12.10;99.90
29731;DHT22;16639;51.488;0.152;2023-05-29T06:48:20;12.20;99.90
29731;DHT22;16639;51.488;0.152;2023-05-29T06:50:48;12.20;99.90
29731;DHT22;16639;51.488;0.152;2023-05-29T06:53:16;12.30;99.90
29731;DHT22;16639;51.488;0.152;2023-05-29T06:55:43;12.20;99.90
29731;DHT22;16639;51.488;0.152;2023-05-29T06:58:11;12.20;99.90
29731;DHT22;16639;51.488;0.152;2023-05-29T07:00:38;12.20;99.90
29731;DHT22;16639;51.488;0.152;2023-05-29T07:03:06;12.30;99.90
29731;DHT22;16639;51.488;0.152;2023-05-29T07:05:34;12.40;99.90
29731;DHT22;16639;51.488;0.152;2023-05-29T07:08:01;12.50;99.90
29731;DHT22;16639;51.488;0.152;2023-05-29T07:10:28;12.50;99.90
29731;DHT22;16639;51.488;0.152;2023-05-29T07:12:56;12.60;99.90
29731;DHT22;16639;51.488;0.152;2023-05-29T07:15:23;12.70;99.90
29731;DHT22;16639;51.488;0.152;2023-05-29T07:17:51;12.70;99.90
29731;DHT22;16639;51.488;0.152;2023-05-29T07:20:18;12.80;99.90
29731;DHT22;16639;51.488;0.152;2023-05-29T07:22:47;12.90;99.90
29731;DHT22;16639;51.488;0.152;2023-05-29T07:25:15;12.90;99.90
29731;DHT22;16639;51.488;0.152;2023-05-29T07:27:42;12.90;99.90
29731;DHT22;16639;51.488;0.152;2023-05-29T07:30:10;12.90;99.90
29731;DHT22;16639;51.488;0.152;2023-05-29T07:32:37;13.00;99.90
29731;DHT22;16639;51.488;0.152;2023-05-29T07:35:05;13.50;99.90
29731;DHT22;16639;51.488;0.152;2023-05-29T07:37:34;13.00;99.90
29731;DHT22;16639;51.488;0.152;2023-05-29T07:40:02;13.10;99.90
29731;DHT22;16639;51.488;0.152;2023-05-29T07:42:33;13.20;99.90
29731;DHT22;16639;51.488;0.152;2023-05-29T07:45:01;13.60;99.90
29731;DHT22;16639;51.488;0.152;2023-05-29T07:47:28;13.30;99.90
29731;DHT22;16639;51.488;0.152;2023-05-29T07:49:55;13.40;99.90
29731;DHT22;16639;51.488;0.152;2023-05-29T07:52:23;13.40;99.90
29731;DHT22;16639;51.488;0.152;2023-05-29T07:54:50;13.50;99.90
29731;DHT22;16639;51.488;0.152;2023-05-29T07:57:18;13.60;99.90
29731;DHT22;16639;51.488;0.152;2023-05-29T07:59:46;13.70;99.90
29731;DHT22;16639;51.488;0.152;2023-05-29T08:02:16;13.80;99.90
29731;DHT22;16639;51.488;0.152;2023-05-29T08:04:44;14.00;99.90
29731;DHT22;16639;51.488;0.152;2023-05-29T08:07:11;14.10;99.90
29731;DHT22;16639;51.488;0.152;2023-05-29T08:09:39;14.10;99.90
29731;DHT22;16639;51.488;0.152;2023-05-29T08:12:06;14.20;99.90
29731;DHT22;16639;51.488;0.152;2023-05-29T08:14:34;14.20;99.90
29731;DHT22;16639;51.488;0.152;2023-05-29T08:17:01;14.30;99.90
29731;DHT22;16639;51.488;0.152;2023-05-29T08:19:29;14.30;99.90
29731;DHT22;16639;51.488;0.152;2023-05-29T08:21:56;14.40;99.90
29731;DHT22;16639;51.488;0.152;2023-05-29T08:24:24;14.40;99.90
29731;DHT22;16639;51.488;0.152;2023-05-29T08:26:51;14.40;99.90
29731;DHT22;16639;51.488;0.152;2023-05-29T08:29:19;14.40;99.90
29731;DHT22;16639;51.488;0.152;2023-05-29T08:31:46;14.40;99.90
29731;DHT22;16639;51.488;0.152;2023-05-29T08:34:14;14.40;99.90
29731;DHT22;16639;51.488;0.152;2023-05-29T08:36:41;14.30;99.90
29731;DHT22;16639;51.488;0.152;2023-05-29T08:39:09;14.40;99.90
29731;DHT22;16639;51.488;0.152;2023-05-29T08:42:07;14.40;99.90
29731;DHT22;16639;51.488;0.152;2023-05-29T08:44:35;14.40;99.90
29731;DHT22;16639;51.488;0.152;2023-05-29T08:47:07;14.60;99.90
29731;DHT22;16639;51.488;0.152;2023-05-29T08:49:42;14.60;99.90
29731;DHT22;16639;51.488;0.152;2023-05-29T08:52:16;14.60;99.90
29731;DHT22;16639;51.488;0.152;2023-05-29T08:54:44;14.70;99.90
29731;DHT22;16639;51.488;0.152;2023-05-29T08:57:12;14.80;99.90
29731;DHT22;16639;51.488;0.152;2023-05-29T08:59:43;14.90;99.90
29731;DHT22;16639;51.488;0.152;2023-05-29T09:02:13;14.90;99.90
29731;DHT22;16639;51.488;0.152;2023-05-29T09:04:42;15.00;99.90
29731;DHT22;16639;51.488;0.152;2023-05-29T09:07:16;15.00;99.90
29731;DHT22;16639;51.488;0.152;2023-05-29T09:09:46;15.00;99.90
29731;DHT22;16639;51.488;0.152;2023-05-29T09:12:15;15.00;99.90
29731;DHT22;16639;51.488;0.152;2023-05-29T09:14:44;15.20;99.90
29731;DHT22;16639;51.488;0.152;2023-05-29T09:17:13;15.30;99.90
29731;DHT22;16639;51.488;0.152;2023-05-29T09:19:40;15.30;99.90
29731;DHT22;16639;51.488;0.152;2023-05-29T09:22:13;15.30;99.90
29731;DHT22;16639;51.488;0.152;2023-05-29T09:24:47;15.20;99.90
29731;DHT22;16639;51.488;0.152;2023-05-29T09:27:15;15.10;99.90
29731;DHT22;16639;51.488;0.152;2023-05-29T09:29:43;15.10;99.90
29731;DHT22;16639;51.488;0.152;2023-05-29T09:32:17;15.10;99.90
29731;DHT22;16639;51.488;0.152;2023-05-29T09:34:45;15.20;99.90
29731;DHT22;16639;51.488;0.152;2023-05-29T09:37:13;15.30;99.90
29731;DHT22;16639;51.488;0.152;2023-05-29T09:39:49;15.30;99.90
29731;DHT22;16639;51.488;0.152;2023-05-29T09:42:18;15.30;99.90
29731;DHT22;16639;51.488;0.152;2023-05-29T09:44:49;15.70;99.90
29731;DHT22;16639;51.488;0.152;2023-05-29T09:47:19;15.30;99.90
29731;DHT22;16639;51.488;0.152;2023-05-29T09:49:47;15.30;99.90
29731;DHT22;16639;51.488;0.152;2023-05-29T09:52:15;15.40;99.90
29731;DHT22;16639;51.488;0.152;2023-05-29T09:54:48;15.50;99.90
29731;DHT22;16639;51.488;0.152;2023-05-29T09:57:16;15.40;99.90
29731;DHT22;16639;51.488;0.152;2023-05-29T09:59:44;15.20;99.90
29731;DHT22;16639;51.488;0.152;2023-05-29T10:02:13;15.30;99.90
29731;DHT22;16639;51.488;0.152;2023-05-29T10:04:42;15.30;99.90
29731;DHT22;16639;51.488;0.152;2023-05-29T10:07:31;15.40;99.90
29731;DHT22;16639;51.488;0.152;2023-05-29T10:10:04;15.30;99.90
29731;DHT22;16639;51.488;0.152;2023-05-29T10:12:34;15.10;99.90
29731;DHT22;16639;51.488;0.152;2023-05-29T10:15:10;15.30;99.90
29731;DHT22;16639;51.488;0.152;2023-05-29T10:17:50;15.20;99.90
29731;DHT22;16639;51.488;0.152;2023-05-29T10:20:20;15.20;99.90
29731;DHT22;16639;51.488;0.152;2023-05-29T10:22:51;15.20;99.90
29731;DHT22;16639;51.488;0.152;2023-05-29T10:25:20;15.30;99.90
29731;DHT22;16639;51.488;0.152;2023-05-29T10:27:48;15.30;99.90
29731;DHT22;16639;51.488;0.152;2023-05-29T10:30:38;15.30;99.90
29731;DHT22;16639;51.488;0.152;2023-05-29T10:35:53;15.30;99.90
29731;DHT22;16639;51.488;0.152;2023-05-29T10:38:24;15.40;99.90
29731;DHT22;16639;51.488;0.152;2023-05-29T10:40:52;15.40;99.90
29731;DHT22;16639;51.488;0.152;2023-05-29T10:43:36;15.40;99.90
29731;DHT22;16639;51.488;0.152;2023-05-29T10:46:04;15.50;99.90
29731;DHT22;16639;51.488;0.152;2023-05-29T10:48:41;15.40;99.90
29731;DHT22;16639;51.488;0.152;2023-05-29T10:51:27;15.50;99.90
29731;DHT22;16639;51.488;0.152;2023-05-29T10:53:55;15.60;99.90
29731;DHT22;16639;51.488;0.152;2023-05-29T10:56:28;15.70;99.90
29731;DHT22;16639;51.488;0.152;2023-05-29T10:58:58;15.70;99.90
29731;DHT22;16639;51.488;0.152;2023-05-29T11:01:30;15.70;99.90
29731;DHT22;16639;51.488;0.152;2023-05-29T11:06:44;15.70;99.90
29731;DHT22;16639;51.488;0.152;2023-05-29T11:09:32;15.80;99.90
29731;DHT22;16639;51.488;0.152;2023-05-29T11:12:21;15.90;99.90
29731;DHT22;16639;51.488;0.152;2023-05-29T11:15:05;16.30;99.90
29731;DHT22;16639;51.488;0.152;2023-05-29T11:20:16;16.00;99.90
29731;DHT22;16639;51.488;0.152;2023-05-29T11:25:27;15.80;99.90
29731;DHT22;16639;51.488;0.152;2023-05-29T11:27:54;15.70;99.90
29731;DHT22;16639;51.488;0.152;2023-05-29T11:30:22;15.70;99.90
29731;DHT22;16639;51.488;0.152;2023-05-29T11:32:52;15.70;99.90
29731;DHT22;16639;51.488;0.152;2023-05-29T11:35:22;15.80;99.90
29731;DHT22;16639;51.488;0.152;2023-05-29T11:37:49;15.90;99.90
29731;DHT22;16639;51.488;0.152;2023-05-29T11:40:18;17.10;99.90
29731;DHT22;16639;51.488;0.152;2023-05-29T11:42:46;16.00;99.90
29731;DHT22;16639;51.488;0.152;2023-05-29T11:45:20;16.20;99.90
29731;DHT22;16639;51.488;0.152;2023-05-29T11:47:55;16.20;99.90
29731;DHT22;16639;51.488;0.152;2023-05-29T11:50:25;13.40;99.90
29731;DHT22;16639;51.488;0.152;2023-05-29T11:52:54;16.10;99.90
29731;DHT22;16639;51.488;0.152;2023-05-29T11:55:23;16.00;99.90
29731;DHT22;16639;51.488;0.152;2023-05-29T11:57:56;15.90;99.90
29731;DHT22;16639;51.488;0.152;2023-05-29T12:00:24;15.90;99.90
29731;DHT22;16639;51.488;0.152;2023-05-29T12:02:52;15.90;99.90
29731;DHT22;16639;51.488;0.152;2023-05-29T12:05:20;15.90;99.90
29731;DHT22;16639;51.488;0.152;2023-05-29T12:07:52;16.10;99.90
29731;DHT22;16639;51.488;0.152;2023-05-29T12:10:20;16.20;99.90
29731;DHT22;16639;51.488;0.152;2023-05-29T12:12:50;16.20;99.90
29731;DHT22;16639;51.488;0.152;2023-05-29T12:15:19;16.20;99.90
29731;DHT22;16639;51.488;0.152;2023-05-29T12:17:46;16.20;99.90
29731;DHT22;16639;51.488;0.152;2023-05-29T12:20:14;16.20;99.90
29731;DHT22;16639;51.488;0.152;2023-05-29T12:22:43;16.30;99.90
29731;DHT22;16639;51.488;0.152;2023-05-29T12:25:20;16.40;99.90
29731;DHT22;16639;51.488;0.152;2023-05-29T12:27:48;16.50;99.90
29731;DHT22;16639;51.488;0.152;2023-05-29T12:30:22;16.60;99.90
29731;DHT22;16639;51.488;0.152;2023-05-29T12:33:00;16.60;99.90
29731;DHT22;16639;51.488;0.152;2023-05-29T12:35:29;16.60;99.90
29731;DHT22;16639;51.488;0.152;2023-05-29T12:38:22;16.70;99.90
29731;DHT22;16639;51.488;0.152;2023-05-29T12:46:04;16.50;99.90
29731;DHT22;16639;51.488;0.152;2023-05-29T12:49:53;16.40;99.90
29731;DHT22;16639;51.488;0.152;2023-05-29T12:52:28;16.40;99.90
29731;DHT22;16639;51.488;0.152;2023-05-29T12:54:58;16.50;99.90
29731;DHT22;16639;51.488;0.152;2023-05-29T12:57:25;16.30;99.90
29731;DHT22;16639;51.488;0.152;2023-05-29T12:59:52;16.50;99.90
29731;DHT22;16639;51.488;0.152;2023-05-29T13:02:20;16.60;99.90
29731;DHT22;16639;51.488;0.152;2023-05-29T13:04:48;16.60;99.90
29731;DHT22;16639;51.488;0.152;2023-05-29T13:07:15;16.70;99.90
29731;DHT22;16639;51.488;0.152;2023-05-29T13:09:44;16.70;99.90
29731;DHT22;16639;51.488;0.152;2023-05-29T13:12:11;16.80;99.90
29731;DHT22;16639;51.488;0.152;2023-05-29T13:14:39;16.80;99.90
29731;DHT22;16639;51.488;0.152;2023-05-29T13:17:07;16.90;99.90
29731;DHT22;16639;51.488;0.152;2023-05-29T13:19:35;16.90;99.90
29731;DHT22;16639;51.488;0.152;2023-05-29T13:22:02;16.90;99.90
29731;DHT22;16639;51.488;0.152;2023-05-29T13:24:29;17.40;99.90
29731;DHT22;16639;51.488;0.152;2023-05-29T13:31:08;16.00;99.90
29731;DHT22;16639;51.488;0.152;2023-05-29T13:33:35;16.90;99.90
29731;DHT22;16639;51.488;0.152;2023-05-29T13:36:03;17.00;99.90
29731;DHT22;16639;51.488;0.152;2023-05-29T13:38:30;17.10;99.90
29731;DHT22;16639;51.488;0.152;2023-05-29T13:40:58;17.10;99.90
29731;DHT22;16639;51.488;0.152;2023-05-29T13:43:25;17.20;99.90
29731;DHT22;16639;51.488;0.152;2023-05-29T13:46:09;17.20;99.90
29731;DHT22;16639;51.488;0.152;2023-05-29T13:48:37;17.30;99.90
29731;DHT22;16639;51.488;0.152;2023-05-29T13:51:05;17.30;99.90
29731;DHT22;16639;51.488;0.152;2023-05-29T13:53:33;17.30;99.90
29731;DHT22;16639;51.488;0.152;2023-05-29T13:56:04;17.30;99.90
29731;DHT22;16639;51.488;0.152;2023-05-29T13:58:39;17.40;99.90
29731;DHT22;16639;51.488;0.152;2023-05-29T14:01:07;17.40;99.90
29731;DHT22;16639;51.488;0.152;2023-05-29T14:03:34;17.50;99.90
29731;DHT22;16639;51.488;0.152;2023-05-29T14:06:03;17.50;99.90
29731;DHT22;16639;51.488;0.152;2023-05-29T14:08:32;17.50;99.90
29731;DHT22;16639;51.488;0.152;2023-05-29T14:11:06;17.60;99.90
29731;DHT22;16639;51.488;0.152;2023-05-29T14:14:34;17.50;99.90
29731;DHT22;16639;51.488;0.152;2023-05-29T14:17:33;17.50;99.90
29731;DHT22;16639;51.488;0.152;2023-05-29T14:20:45;18.70;99.90
29731;DHT22;16639;51.488;0.152;2023-05-29T14:23:36;17.40;99.90
29731;DHT22;16639;51.488;0.152;2023-05-29T14:26:08;17.50;99.90
29731;DHT22;16639;51.488;0.152;2023-05-29T14:28:36;17.50;99.90
29731;DHT22;16639;51.488;0.152;2023-05-29T14:31:04;17.50;99.90
29731;DHT22;16639;51.488;0.152;2023-05-29T14:33:32;17.60;99.90
29731;DHT22;16639;51.488;0.152;2023-05-29T14:36:00;17.70;99.90
29731;DHT22;16639;51.488;0.152;2023-05-29T14:38:27;17.70;99.90
29731;DHT22;16639;51.488;0.152;2023-05-29T14:40:54;17.70;99.90
29731;DHT22;16639;51.488;0.152;2023-05-29T14:43:42;17.70;99.90
29731;DHT22;16639;51.488;0.152;2023-05-29T14:46:10;17.70;99.90
29731;DHT22;16639;51.488;0.152;2023-05-29T14:48:37;17.70;99.90
29731;DHT22;16639;51.488;0.152;2023-05-29T14:51:06;17.70;99.90
29731;DHT22;16639;51.488;0.152;2023-05-29T14:53:35;17.70;99.90
29731;DHT22;16639;51.488;0.152;2023-05-29T14:56:03;20.80;99.90
29731;DHT22;16639;51.488;0.152;2023-05-29T14:58:30;17.50;99.90
29731;DHT22;16639;51.488;0.152;2023-05-29T15:00:59;17.40;99.90
29731;DHT22;16639;51.488;0.152;2023-05-29T15:03:27;17.30;99.90
29731;DHT22;16639;51.488;0.152;2023-05-29T15:05:55;17.30;99.90
29731;DHT22;16639;51.488;0.152;2023-05-29T15:08:24;17.30;99.90
29731;DHT22;16639;51.488;0.152;2023-05-29T15:10:51;17.40;99.90
29731;DHT22;16639;51.488;0.152;2023-05-29T15:13:19;17.40;99.90
29731;DHT22;16639;51.488;0.152;2023-05-29T15:15:46;17.40;99.90
29731;DHT22;16639;51.488;0.152;2023-05-29T15:18:14;17.40;99.90
29731;DHT22;16639;51.488;0.152;2023-05-29T15:20:42;17.40;99.90
29731;DHT22;16639;51.488;0.152;2023-05-29T15:23:09;17.40;99.90
29731;DHT22;16639;51.488;0.152;2023-05-29T15:25:37;17.40;99.90
29731;DHT22;16639;51.488;0.152;2023-05-29T15:28:04;17.40;99.90
29731;DHT22;16639;51.488;0.152;2023-05-29T15:30:33;17.40;99.90
29731;DHT22;16639;51.488;0.152;2023-05-29T15:33:00;17.40;99.90
29731;DHT22;16639;51.488;0.152;2023-05-29T15:35:28;17.50;99.90
29731;DHT22;16639;51.488;0.152;2023-05-29T15:37:55;17.50;99.90
29731;DHT22;16639;51.488;0.152;2023-05-29T15:40:23;17.60;99.90
29731;DHT22;16639;51.488;0.152;2023-05-29T15:42:50;17.60;99.90
29731;DHT22;16639;51.488;0.152;2023-05-29T15:45:18;17.70;99.90
29731;DHT22;16639;51.488;0.152;2023-05-29T15:47:46;17.60;99.90
29731;DHT22;16639;51.488;0.152;2023-05-29T15:50:14;17.70;99.90
29731;DHT22;16639;51.488;0.152;2023-05-29T15:52:41;17.70;99.90
29731;DHT22;16639;51.488;0.152;2023-05-29T15:55:21;17.70;99.90
29731;DHT22;16639;51.488;0.152;2023-05-29T15:57:49;17.70;99.90
29731;DHT22;16639;51.488;0.152;2023-05-29T16:00:17;17.80;99.90
29731;DHT22;16639;51.488;0.152;2023-05-29T16:02:45;17.80;99.90
29731;DHT22;16639;51.488;0.152;2023-05-29T16:05:13;17.80;99.90
29731;DHT22;16639;51.488;0.152;2023-05-29T16:07:40;17.80;99.90
29731;DHT22;16639;51.488;0.152;2023-05-29T16:10:09;17.80;99.90
29731;DHT22;16639;51.488;0.152;2023-05-29T16:12:37;17.80;99.90
29731;DHT22;16639;51.488;0.152;2023-05-29T16:15:05;17.90;99.90
29731;DHT22;16639;51.488;0.152;2023-05-29T16:17:46;17.90;99.90
29731;DHT22;16639;51.488;0.152;2023-05-29T16:20:46;17.90;99.90
29731;DHT22;16639;51.488;0.152;2023-05-29T16:23:14;17.80;99.90